sensor_id;sensor_type;location;lat;lon;timestamp;P1;durP1;ratioP1;P2;durP2;ratioP2
6344;SDS011;3205;42.666;23.264;2023-07-16T00:00:58;19.48;;;13.18;;
6344;SDS011;3205;42.666;23.264;2023-07-16T00:03:24;18.75;;;13.13;;
6344;SDS011;3205;42.666;23.264;2023-07-16T00:05:51;16.33;;;12.65;;
6344;SDS011;3205;42.666;23.264;2023-07-16T00:08:19;14.52;;;12.77;;
6344;SDS011;3205;42.666;23.264;2023-07-16T00:10:45;21.42;;;12.85;;
6344;SDS011;3205;42.666;23.264;2023-07-16T00:13:11;14.85;;;11.73;;
6344;SDS011;3205;42.666;23.264;2023-07-16T00:15:38;17.58;;;12.68;;
6344;SDS011;3205;42.666;23.264;2023-07-16T00:18:04;17.45;;;12.80;;
6344;SDS011;3205;42.666;23.264;2023-07-16T00:20:31;17.60;;;12.77;;
6344;SDS011;3205;42.666;23.264;2023-07-16T00:22:58;21.00;;;13.80;;
6344;SDS011;3205;42.666;23.264;2023-07-16T00:25:24;17.13;;;13.32;;
6344;SDS011;3205;42.666;23.264;2023-07-16T00:27:50;18.75;;;13.30;;
6344;SDS011;3205;42.666;23.264;2023-07-16T00:30:16;14.43;;;12.27;;
6344;SDS011;3205;42.666;23.264;2023-07-16T00:32:42;19.63;;;13.10;;
6344;SDS011;3205;42.666;23.264;2023-07-16T00:35:08;18.55;;;13.85;;
6344;SDS011;3205;42.666;23.264;2023-07-16T00:37:34;16.63;;;13.55;;
6344;SDS011;3205;42.666;23.264;2023-07-16T00:40:01;14.95;;;13.43;;
6344;SDS011;3205;42.666;23.264;2023-07-16T00:42:27;17.75;;;13.73;;
6344;SDS011;3205;42.666;23.264;2023-07-16T00:44:54;16.83;;;12.93;;
6344;SDS011;3205;42.666;23.264;2023-07-16T00:47:20;19.60;;;13.15;;
6344;SDS011;3205;42.666;23.264;2023-07-16T00:49:47;19.00;;;13.27;;
6344;SDS011;3205;42.666;23.264;2023-07-16T00:52:14;17.70;;;13.07;;
6344;SDS011;3205;42.666;23.264;2023-07-16T00:54:43;26.88;;;12.75;;
6344;SDS011;3205;42.666;23.264;2023-07-16T00:57:11;14.73;;;12.63;;
6344;SDS011;3205;42.666;23.264;2023-07-16T00:59:37;14.88;;;12.52;;
6344;SDS011;3205;42.666;23.264;2023-07-16T01:02:03;15.85;;;12.80;;
6344;SDS011;3205;42.666;23.264;2023-07-16T01:04:29;16.88;;;12.90;;
6344;SDS011;3205;42.666;23.264;2023-07-16T01:06:55;16.55;;;13.32;;
6344;SDS011;3205;42.666;23.264;2023-07-16T01:09:26;18.05;;;13.00;;
6344;SDS011;3205;42.666;23.264;2023-07-16T01:11:54;21.83;;;12.98;;
6344;SDS011;3205;42.666;23.264;2023-07-16T01:14:22;20.83;;;13.15;;
6344;SDS011;3205;42.666;23.264;2023-07-16T01:16:49;17.10;;;13.50;;
6344;SDS011;3205;42.666;23.264;2023-07-16T01:19:18;15.75;;;13.05;;
6344;SDS011;3205;42.666;23.264;2023-07-16T01:21:45;17.88;;;12.73;;
6344;SDS011;3205;42.666;23.264;2023-07-16T01:24:34;16.90;;;12.98;;
6344;SDS011;3205;42.666;23.264;2023-07-16T01:27:37;16.42;;;12.48;;
6344;SDS011;3205;42.666;23.264;2023-07-16T01:30:16;19.23;;;12.75;;
6344;SDS011;3205;42.666;23.264;2023-07-16T01:32:45;19.55;;;12.35;;
6344;SDS011;3205;42.666;23.264;2023-07-16T01:35:11;17.63;;;13.93;;
6344;SDS011;3205;42.666;23.264;2023-07-16T01:37:39;18.50;;;13.07;;
6344;SDS011;3205;42.666;23.264;2023-07-16T01:40:07;13.85;;;12.40;;
6344;SDS011;3205;42.666;23.264;2023-07-16T01:42:34;17.45;;;12.93;;
6344;SDS011;3205;42.666;23.264;2023-07-16T01:45:00;20.23;;;13.27;;
6344;SDS011;3205;42.666;23.264;2023-07-16T01:47:30;15.30;;;13.25;;
6344;SDS011;3205;42.666;23.264;2023-07-16T01:50:05;19.23;;;12.82;;
6344;SDS011;3205;42.666;23.264;2023-07-16T01:52:32;16.45;;;12.77;;
6344;SDS011;3205;42.666;23.264;2023-07-16T01:54:58;18.83;;;13.48;;
6344;SDS011;3205;42.666;23.264;2023-07-16T01:57:24;21.58;;;13.10;;
6344;SDS011;3205;42.666;23.264;2023-07-16T01:59:50;19.70;;;12.85;;
6344;SDS011;3205;42.666;23.264;2023-07-16T02:02:16;16.50;;;12.90;;
6344;SDS011;3205;42.666;23.264;2023-07-16T02:04:43;15.82;;;12.15;;
6344;SDS011;3205;42.666;23.264;2023-07-16T02:07:09;23.33;;;14.18;;
6344;SDS011;3205;42.666;23.264;2023-07-16T02:09:35;18.23;;;13.13;;
6344;SDS011;3205;42.666;23.264;2023-07-16T02:12:01;17.63;;;12.77;;
6344;SDS011;3205;42.666;23.264;2023-07-16T02:14:30;16.60;;;12.50;;
6344;SDS011;3205;42.666;23.264;2023-07-16T02:16:57;16.00;;;13.07;;
6344;SDS011;3205;42.666;23.264;2023-07-16T02:19:23;17.38;;;13.18;;
6344;SDS011;3205;42.666;23.264;2023-07-16T02:21:51;15.68;;;12.38;;
6344;SDS011;3205;42.666;23.264;2023-07-16T02:24:17;15.43;;;13.60;;
6344;SDS011;3205;42.666;23.264;2023-07-16T02:26:43;14.07;;;12.57;;
6344;SDS011;3205;42.666;23.264;2023-07-16T02:29:09;18.67;;;12.48;;
6344;SDS011;3205;42.666;23.264;2023-07-16T02:31:36;15.70;;;12.85;;
6344;SDS011;3205;42.666;23.264;2023-07-16T02:34:02;18.55;;;13.43;;
6344;SDS011;3205;42.666;23.264;2023-07-16T02:36:28;16.23;;;12.98;;
6344;SDS011;3205;42.666;23.264;2023-07-16T02:38:55;18.52;;;12.88;;
6344;SDS011;3205;42.666;23.264;2023-07-16T02:41:21;19.80;;;12.88;;
6344;SDS011;3205;42.666;23.264;2023-07-16T02:43:47;18.75;;;12.73;;
6344;SDS011;3205;42.666;23.264;2023-07-16T02:46:13;16.38;;;12.75;;
6344;SDS011;3205;42.666;23.264;2023-07-16T02:48:39;17.45;;;12.93;;
6344;SDS011;3205;42.666;23.264;2023-07-16T02:51:06;14.38;;;12.40;;
6344;SDS011;3205;42.666;23.264;2023-07-16T02:53:32;22.02;;;13.23;;
6344;SDS011;3205;42.666;23.264;2023-07-16T02:55:58;18.27;;;12.80;;
6344;SDS011;3205;42.666;23.264;2023-07-16T02:58:24;18.95;;;13.43;;
6344;SDS011;3205;42.666;23.264;2023-07-16T03:00:50;18.23;;;13.25;;
6344;SDS011;3205;42.666;23.264;2023-07-16T03:03:17;18.10;;;12.40;;
6344;SDS011;3205;42.666;23.264;2023-07-16T03:05:43;19.65;;;12.63;;
6344;SDS011;3205;42.666;23.264;2023-07-16T03:08:09;17.15;;;12.57;;
6344;SDS011;3205;42.666;23.264;2023-07-16T03:10:35;17.65;;;12.88;;
6344;SDS011;3205;42.666;23.264;2023-07-16T03:13:02;20.77;;;13.65;;
6344;SDS011;3205;42.666;23.264;2023-07-16T03:15:28;17.38;;;12.10;;
6344;SDS011;3205;42.666;23.264;2023-07-16T03:17:54;15.02;;;12.20;;
6344;SDS011;3205;42.666;23.264;2023-07-16T03:20:20;13.27;;;11.70;;
6344;SDS011;3205;42.666;23.264;2023-07-16T03:22:47;17.40;;;12.65;;
6344;SDS011;3205;42.666;23.264;2023-07-16T03:25:13;15.93;;;13.00;;
6344;SDS011;3205;42.666;23.264;2023-07-16T03:27:39;14.60;;;12.15;;
6344;SDS011;3205;42.666;23.264;2023-07-16T03:30:07;16.00;;;11.65;;
6344;SDS011;3205;42.666;23.264;2023-07-16T03:32:34;13.55;;;11.85;;
6344;SDS011;3205;42.666;23.264;2023-07-16T03:35:00;16.38;;;11.93;;
6344;SDS011;3205;42.666;23.264;2023-07-16T03:37:26;17.45;;;11.93;;
6344;SDS011;3205;42.666;23.264;2023-07-16T03:39:52;15.73;;;11.93;;
6344;SDS011;3205;42.666;23.264;2023-07-16T03:42:18;18.75;;;12.77;;
6344;SDS011;3205;42.666;23.264;2023-07-16T03:44:44;23.83;;;13.38;;
6344;SDS011;3205;42.666;23.264;2023-07-16T03:47:11;24.10;;;12.70;;
6344;SDS011;3205;42.666;23.264;2023-07-16T03:49:37;20.23;;;12.18;;
6344;SDS011;3205;42.666;23.264;2023-07-16T03:52:03;17.50;;;11.70;;
6344;SDS011;3205;42.666;23.264;2023-07-16T03:54:30;14.52;;;10.13;;
6344;SDS011;3205;42.666;23.264;2023-07-16T03:56:56;11.57;;;9.98;;
6344;SDS011;3205;42.666;23.264;2023-07-16T03:59:23;15.93;;;10.10;;
6344;SDS011;3205;42.666;23.264;2023-07-16T04:01:49;16.67;;;8.95;;
6344;SDS011;3205;42.666;23.264;2023-07-16T04:04:15;13.40;;;9.20;;
6344;SDS011;3205;42.666;23.264;2023-07-16T04:06:41;17.52;;;10.05;;
6344;SDS011;3205;42.666;23.264;2023-07-16T04:09:07;16.52;;;9.23;;
6344;SDS011;3205;42.666;23.264;2023-07-16T04:11:34;10.00;;;8.80;;
6344;SDS011;3205;42.666;23.264;2023-07-16T04:14:00;14.38;;;8.32;;
6344;SDS011;3205;42.666;23.264;2023-07-16T04:16:26;11.15;;;8.23;;
6344;SDS011;3205;42.666;23.264;2023-07-16T04:18:52;9.38;;;8.40;;
6344;SDS011;3205;42.666;23.264;2023-07-16T04:21:19;9.68;;;8.35;;
6344;SDS011;3205;42.666;23.264;2023-07-16T04:23:45;14.55;;;8.20;;
6344;SDS011;3205;42.666;23.264;2023-07-16T04:26:11;8.88;;;7.93;;
6344;SDS011;3205;42.666;23.264;2023-07-16T04:28:37;13.60;;;7.47;;
6344;SDS011;3205;42.666;23.264;2023-07-16T04:31:04;8.63;;;7.47;;
6344;SDS011;3205;42.666;23.264;2023-07-16T04:33:30;9.38;;;7.70;;
6344;SDS011;3205;42.666;23.264;2023-07-16T04:35:56;11.93;;;7.72;;
6344;SDS011;3205;42.666;23.264;2023-07-16T04:38:23;18.52;;;10.02;;
6344;SDS011;3205;42.666;23.264;2023-07-16T04:40:49;9.02;;;7.82;;
6344;SDS011;3205;42.666;23.264;2023-07-16T04:43:15;7.95;;;7.25;;
6344;SDS011;3205;42.666;23.264;2023-07-16T04:45:43;9.18;;;7.13;;
6344;SDS011;3205;42.666;23.264;2023-07-16T04:48:11;8.40;;;7.03;;
6344;SDS011;3205;42.666;23.264;2023-07-16T04:50:38;11.13;;;7.18;;
6344;SDS011;3205;42.666;23.264;2023-07-16T04:53:04;7.20;;;6.65;;
6344;SDS011;3205;42.666;23.264;2023-07-16T04:55:35;7.80;;;6.93;;
6344;SDS011;3205;42.666;23.264;2023-07-16T04:58:02;14.65;;;7.70;;
6344;SDS011;3205;42.666;23.264;2023-07-16T05:00:28;10.77;;;7.18;;
6344;SDS011;3205;42.666;23.264;2023-07-16T05:02:54;6.82;;;5.45;;
6344;SDS011;3205;42.666;23.264;2023-07-16T05:05:20;6.70;;;5.65;;
6344;SDS011;3205;42.666;23.264;2023-07-16T05:07:46;6.03;;;4.88;;
6344;SDS011;3205;42.666;23.264;2023-07-16T05:10:12;5.60;;;5.07;;
6344;SDS011;3205;42.666;23.264;2023-07-16T05:12:39;5.25;;;4.68;;
6344;SDS011;3205;42.666;23.264;2023-07-16T05:15:05;8.60;;;4.47;;
6344;SDS011;3205;42.666;23.264;2023-07-16T05:17:32;12.98;;;5.18;;
6344;SDS011;3205;42.666;23.264;2023-07-16T05:19:58;6.28;;;5.07;;
6344;SDS011;3205;42.666;23.264;2023-07-16T05:22:25;5.85;;;4.78;;
6344;SDS011;3205;42.666;23.264;2023-07-16T05:24:51;5.40;;;4.75;;
6344;SDS011;3205;42.666;23.264;2023-07-16T05:27:17;9.35;;;5.00;;
6344;SDS011;3205;42.666;23.264;2023-07-16T05:29:44;8.15;;;4.55;;
6344;SDS011;3205;42.666;23.264;2023-07-16T05:32:10;4.70;;;4.40;;
6344;SDS011;3205;42.666;23.264;2023-07-16T05:34:36;7.53;;;4.88;;
6344;SDS011;3205;42.666;23.264;2023-07-16T05:37:02;5.57;;;4.93;;
6344;SDS011;3205;42.666;23.264;2023-07-16T05:39:28;5.53;;;3.95;;
6344;SDS011;3205;42.666;23.264;2023-07-16T05:41:55;5.68;;;4.35;;
6344;SDS011;3205;42.666;23.264;2023-07-16T05:44:21;4.93;;;4.53;;
6344;SDS011;3205;42.666;23.264;2023-07-16T05:46:48;5.03;;;4.45;;
6344;SDS011;3205;42.666;23.264;2023-07-16T05:49:14;5.00;;;4.60;;
6344;SDS011;3205;42.666;23.264;2023-07-16T05:51:40;6.03;;;4.72;;
6344;SDS011;3205;42.666;23.264;2023-07-16T05:54:06;5.03;;;4.50;;
6344;SDS011;3205;42.666;23.264;2023-07-16T05:56:32;8.88;;;4.68;;
6344;SDS011;3205;42.666;23.264;2023-07-16T05:58:58;5.25;;;4.20;;
6344;SDS011;3205;42.666;23.264;2023-07-16T06:01:24;5.47;;;4.32;;
6344;SDS011;3205;42.666;23.264;2023-07-16T06:03:51;9.68;;;5.35;;
6344;SDS011;3205;42.666;23.264;2023-07-16T06:06:17;10.15;;;4.82;;
6344;SDS011;3205;42.666;23.264;2023-07-16T06:08:44;7.63;;;4.50;;
6344;SDS011;3205;42.666;23.264;2023-07-16T06:11:11;9.38;;;5.53;;
6344;SDS011;3205;42.666;23.264;2023-07-16T06:13:38;6.78;;;5.10;;
6344;SDS011;3205;42.666;23.264;2023-07-16T06:16:04;5.95;;;4.43;;
6344;SDS011;3205;42.666;23.264;2023-07-16T06:18:30;5.90;;;5.25;;
6344;SDS011;3205;42.666;23.264;2023-07-16T06:20:58;7.18;;;5.22;;
6344;SDS011;3205;42.666;23.264;2023-07-16T06:23:24;8.43;;;5.20;;
6344;SDS011;3205;42.666;23.264;2023-07-16T06:25:53;5.93;;;5.32;;
6344;SDS011;3205;42.666;23.264;2023-07-16T06:28:20;8.32;;;4.68;;
6344;SDS011;3205;42.666;23.264;2023-07-16T06:30:46;8.70;;;4.90;;
6344;SDS011;3205;42.666;23.264;2023-07-16T06:33:12;7.43;;;4.82;;
6344;SDS011;3205;42.666;23.264;2023-07-16T06:35:38;6.43;;;4.78;;
6344;SDS011;3205;42.666;23.264;2023-07-16T06:38:05;6.30;;;5.00;;
6344;SDS011;3205;42.666;23.264;2023-07-16T06:40:31;8.98;;;5.32;;
6344;SDS011;3205;42.666;23.264;2023-07-16T06:42:57;10.23;;;5.45;;
6344;SDS011;3205;42.666;23.264;2023-07-16T06:45:23;11.13;;;5.90;;
6344;SDS011;3205;42.666;23.264;2023-07-16T06:47:49;6.07;;;5.47;;
6344;SDS011;3205;42.666;23.264;2023-07-16T06:50:15;8.57;;;5.57;;
6344;SDS011;3205;42.666;23.264;2023-07-16T06:52:41;7.25;;;5.35;;
6344;SDS011;3205;42.666;23.264;2023-07-16T06:55:08;7.15;;;5.43;;
6344;SDS011;3205;42.666;23.264;2023-07-16T06:57:35;10.73;;;7.00;;
6344;SDS011;3205;42.666;23.264;2023-07-16T07:00:01;7.32;;;6.63;;
6344;SDS011;3205;42.666;23.264;2023-07-16T07:02:27;7.55;;;5.88;;
6344;SDS011;3205;42.666;23.264;2023-07-16T07:04:54;8.15;;;5.38;;
6344;SDS011;3205;42.666;23.264;2023-07-16T07:07:22;8.15;;;5.95;;
6344;SDS011;3205;42.666;23.264;2023-07-16T07:09:48;6.68;;;5.82;;
6344;SDS011;3205;42.666;23.264;2023-07-16T07:12:15;10.50;;;6.38;;
6344;SDS011;3205;42.666;23.264;2023-07-16T07:14:41;6.65;;;6.03;;
6344;SDS011;3205;42.666;23.264;2023-07-16T07:17:07;7.15;;;6.55;;
6344;SDS011;3205;42.666;23.264;2023-07-16T07:19:33;9.48;;;7.50;;
6344;SDS011;3205;42.666;23.264;2023-07-16T07:21:59;7.53;;;6.82;;
6344;SDS011;3205;42.666;23.264;2023-07-16T07:24:26;9.77;;;7.43;;
6344;SDS011;3205;42.666;23.264;2023-07-16T07:26:52;6.68;;;6.07;;
6344;SDS011;3205;42.666;23.264;2023-07-16T07:29:18;9.32;;;6.70;;
6344;SDS011;3205;42.666;23.264;2023-07-16T07:31:45;7.57;;;6.88;;
6344;SDS011;3205;42.666;23.264;2023-07-16T07:34:11;9.13;;;6.43;;
6344;SDS011;3205;42.666;23.264;2023-07-16T07:36:37;6.88;;;6.20;;
6344;SDS011;3205;42.666;23.264;2023-07-16T07:39:03;9.82;;;6.75;;
6344;SDS011;3205;42.666;23.264;2023-07-16T07:41:29;9.43;;;7.00;;
6344;SDS011;3205;42.666;23.264;2023-07-16T07:43:55;8.55;;;6.35;;
6344;SDS011;3205;42.666;23.264;2023-07-16T07:46:22;7.20;;;6.55;;
6344;SDS011;3205;42.666;23.264;2023-07-16T07:48:48;9.15;;;7.05;;
6344;SDS011;3205;42.666;23.264;2023-07-16T07:51:14;7.45;;;6.68;;
6344;SDS011;3205;42.666;23.264;2023-07-16T07:53:40;9.25;;;6.43;;
6344;SDS011;3205;42.666;23.264;2023-07-16T07:56:07;8.70;;;6.80;;
6344;SDS011;3205;42.666;23.264;2023-07-16T07:58:33;7.82;;;7.07;;
6344;SDS011;3205;42.666;23.264;2023-07-16T08:01:04;7.97;;;7.05;;
6344;SDS011;3205;42.666;23.264;2023-07-16T08:03:31;9.35;;;7.47;;
6344;SDS011;3205;42.666;23.264;2023-07-16T08:05:58;8.93;;;7.07;;
6344;SDS011;3205;42.666;23.264;2023-07-16T08:08:24;10.55;;;7.10;;
6344;SDS011;3205;42.666;23.264;2023-07-16T08:10:50;8.55;;;7.32;;
6344;SDS011;3205;42.666;23.264;2023-07-16T08:13:16;9.90;;;6.75;;
6344;SDS011;3205;42.666;23.264;2023-07-16T08:15:42;9.50;;;7.40;;
6344;SDS011;3205;42.666;23.264;2023-07-16T08:18:09;13.95;;;8.05;;
6344;SDS011;3205;42.666;23.264;2023-07-16T08:20:35;7.80;;;7.00;;
6344;SDS011;3205;42.666;23.264;2023-07-16T08:23:02;6.95;;;6.35;;
6344;SDS011;3205;42.666;23.264;2023-07-16T08:25:28;7.05;;;6.32;;
6344;SDS011;3205;42.666;23.264;2023-07-16T08:27:54;6.68;;;6.07;;
6344;SDS011;3205;42.666;23.264;2023-07-16T08:30:20;9.38;;;6.88;;
6344;SDS011;3205;42.666;23.264;2023-07-16T08:32:47;8.38;;;7.22;;
6344;SDS011;3205;42.666;23.264;2023-07-16T08:35:13;11.65;;;7.30;;
6344;SDS011;3205;42.666;23.264;2023-07-16T08:37:42;7.65;;;7.05;;
6344;SDS011;3205;42.666;23.264;2023-07-16T08:40:08;13.20;;;7.38;;
6344;SDS011;3205;42.666;23.264;2023-07-16T08:42:36;13.90;;;7.70;;
6344;SDS011;3205;42.666;23.264;2023-07-16T08:45:02;7.70;;;6.75;;
6344;SDS011;3205;42.666;23.264;2023-07-16T08:47:31;8.13;;;7.07;;
6344;SDS011;3205;42.666;23.264;2023-07-16T08:49:58;10.77;;;6.82;;
6344;SDS011;3205;42.666;23.264;2023-07-16T08:52:25;12.68;;;7.50;;
6344;SDS011;3205;42.666;23.264;2023-07-16T08:54:53;8.40;;;7.65;;
6344;SDS011;3205;42.666;23.264;2023-07-16T08:57:20;9.88;;;7.07;;
6344;SDS011;3205;42.666;23.264;2023-07-16T08:59:47;7.70;;;6.93;;
6344;SDS011;3205;42.666;23.264;2023-07-16T09:02:14;8.25;;;7.45;;
6344;SDS011;3205;42.666;23.264;2023-07-16T09:04:42;9.70;;;7.40;;
6344;SDS011;3205;42.666;23.264;2023-07-16T09:07:08;9.23;;;7.45;;
6344;SDS011;3205;42.666;23.264;2023-07-16T09:09:34;8.35;;;7.38;;
6344;SDS011;3205;42.666;23.264;2023-07-16T09:12:02;8.15;;;7.35;;
6344;SDS011;3205;42.666;23.264;2023-07-16T09:14:28;7.88;;;7.15;;
6344;SDS011;3205;42.666;23.264;2023-07-16T09:16:54;13.50;;;6.93;;
6344;SDS011;3205;42.666;23.264;2023-07-16T09:19:20;10.32;;;7.05;;
6344;SDS011;3205;42.666;23.264;2023-07-16T09:21:47;8.80;;;7.15;;
6344;SDS011;3205;42.666;23.264;2023-07-16T09:24:13;8.65;;;7.45;;
6344;SDS011;3205;42.666;23.264;2023-07-16T09:26:46;12.80;;;7.25;;
6344;SDS011;3205;42.666;23.264;2023-07-16T09:29:14;12.25;;;7.90;;
6344;SDS011;3205;42.666;23.264;2023-07-16T09:31:50;7.88;;;7.18;;
6344;SDS011;3205;42.666;23.264;2023-07-16T09:34:18;8.93;;;7.85;;
6344;SDS011;3205;42.666;23.264;2023-07-16T09:36:46;10.57;;;7.57;;
6344;SDS011;3205;42.666;23.264;2023-07-16T09:39:13;9.20;;;7.78;;
6344;SDS011;3205;42.666;23.264;2023-07-16T09:41:40;11.02;;;7.68;;
6344;SDS011;3205;42.666;23.264;2023-07-16T09:44:07;8.65;;;7.45;;
6344;SDS011;3205;42.666;23.264;2023-07-16T09:46:34;9.18;;;7.47;;
6344;SDS011;3205;42.666;23.264;2023-07-16T09:49:00;10.30;;;8.48;;
6344;SDS011;3205;42.666;23.264;2023-07-16T09:51:26;10.10;;;7.35;;
6344;SDS011;3205;42.666;23.264;2023-07-16T09:53:55;10.43;;;8.35;;
6344;SDS011;3205;42.666;23.264;2023-07-16T09:56:23;14.02;;;8.35;;
6344;SDS011;3205;42.666;23.264;2023-07-16T09:58:53;8.65;;;7.57;;
6344;SDS011;3205;42.666;23.264;2023-07-16T10:01:21;11.10;;;7.30;;
6344;SDS011;3205;42.666;23.264;2023-07-16T10:03:49;11.52;;;7.93;;
6344;SDS011;3205;42.666;23.264;2023-07-16T10:06:15;15.38;;;7.68;;
6344;SDS011;3205;42.666;23.264;2023-07-16T10:08:48;8.70;;;7.45;;
6344;SDS011;3205;42.666;23.264;2023-07-16T10:11:15;11.20;;;7.97;;
6344;SDS011;3205;42.666;23.264;2023-07-16T10:13:42;13.63;;;8.23;;
6344;SDS011;3205;42.666;23.264;2023-07-16T10:16:10;11.05;;;7.70;;
6344;SDS011;3205;42.666;23.264;2023-07-16T10:18:50;11.70;;;7.47;;
6344;SDS011;3205;42.666;23.264;2023-07-16T10:21:22;11.23;;;8.18;;
6344;SDS011;3205;42.666;23.264;2023-07-16T10:23:56;13.93;;;7.78;;
6344;SDS011;3205;42.666;23.264;2023-07-16T10:26:26;9.48;;;8.55;;
6344;SDS011;3205;42.666;23.264;2023-07-16T10:28:56;12.82;;;8.23;;
6344;SDS011;3205;42.666;23.264;2023-07-16T10:31:23;22.20;;;8.15;;
6344;SDS011;3205;42.666;23.264;2023-07-16T10:34:00;17.13;;;8.57;;
6344;SDS011;3205;42.666;23.264;2023-07-16T10:36:26;14.18;;;8.07;;
6344;SDS011;3205;42.666;23.264;2023-07-16T10:38:53;10.95;;;8.02;;
6344;SDS011;3205;42.666;23.264;2023-07-16T10:41:19;13.25;;;8.23;;
6344;SDS011;3205;42.666;23.264;2023-07-16T10:43:46;18.42;;;8.65;;
6344;SDS011;3205;42.666;23.264;2023-07-16T10:46:12;12.68;;;8.15;;
6344;SDS011;3205;42.666;23.264;2023-07-16T10:48:45;12.05;;;8.63;;
6344;SDS011;3205;42.666;23.264;2023-07-16T10:51:14;14.10;;;8.93;;
6344;SDS011;3205;42.666;23.264;2023-07-16T10:53:40;12.73;;;8.38;;
6344;SDS011;3205;42.666;23.264;2023-07-16T10:56:07;13.95;;;8.23;;
6344;SDS011;3205;42.666;23.264;2023-07-16T10:58:33;12.23;;;8.20;;
6344;SDS011;3205;42.666;23.264;2023-07-16T11:01:01;13.18;;;8.88;;
6344;SDS011;3205;42.666;23.264;2023-07-16T11:03:27;13.77;;;8.18;;
6344;SDS011;3205;42.666;23.264;2023-07-16T11:05:54;15.02;;;8.60;;
6344;SDS011;3205;42.666;23.264;2023-07-16T11:08:24;8.75;;;7.88;;
6344;SDS011;3205;42.666;23.264;2023-07-16T11:10:54;10.23;;;8.00;;
6344;SDS011;3205;42.666;23.264;2023-07-16T11:13:24;11.15;;;8.50;;
6344;SDS011;3205;42.666;23.264;2023-07-16T11:15:51;12.30;;;9.10;;
6344;SDS011;3205;42.666;23.264;2023-07-16T11:18:17;11.60;;;8.57;;
6344;SDS011;3205;42.666;23.264;2023-07-16T11:20:43;11.75;;;8.73;;
6344;SDS011;3205;42.666;23.264;2023-07-16T11:23:09;14.07;;;8.75;;
6344;SDS011;3205;42.666;23.264;2023-07-16T11:25:37;12.30;;;8.90;;
6344;SDS011;3205;42.666;23.264;2023-07-16T11:28:03;10.55;;;8.23;;
6344;SDS011;3205;42.666;23.264;2023-07-16T11:30:29;12.00;;;8.35;;
6344;SDS011;3205;42.666;23.264;2023-07-16T11:32:57;14.02;;;8.73;;
6344;SDS011;3205;42.666;23.264;2023-07-16T11:35:23;10.82;;;8.50;;
6344;SDS011;3205;42.666;23.264;2023-07-16T11:37:51;14.80;;;8.00;;
6344;SDS011;3205;42.666;23.264;2023-07-16T11:40:17;11.60;;;7.70;;
6344;SDS011;3205;42.666;23.264;2023-07-16T11:42:46;11.63;;;8.60;;
6344;SDS011;3205;42.666;23.264;2023-07-16T11:45:15;15.98;;;8.70;;
6344;SDS011;3205;42.666;23.264;2023-07-16T11:47:44;12.18;;;8.27;;
6344;SDS011;3205;42.666;23.264;2023-07-16T11:50:10;12.50;;;8.68;;
6344;SDS011;3205;42.666;23.264;2023-07-16T11:52:37;10.65;;;7.88;;
6344;SDS011;3205;42.666;23.264;2023-07-16T11:55:04;11.32;;;8.30;;
6344;SDS011;3205;42.666;23.264;2023-07-16T11:57:31;9.15;;;8.20;;
6344;SDS011;3205;42.666;23.264;2023-07-16T11:59:58;11.52;;;8.18;;
6344;SDS011;3205;42.666;23.264;2023-07-16T12:02:25;13.30;;;8.35;;
6344;SDS011;3205;42.666;23.264;2023-07-16T12:04:52;13.90;;;8.48;;
6344;SDS011;3205;42.666;23.264;2023-07-16T12:07:29;12.82;;;7.88;;
6344;SDS011;3205;42.666;23.264;2023-07-16T12:09:56;10.60;;;7.60;;
6344;SDS011;3205;42.666;23.264;2023-07-16T12:12:22;10.25;;;7.60;;
6344;SDS011;3205;42.666;23.264;2023-07-16T12:14:48;11.63;;;8.88;;
6344;SDS011;3205;42.666;23.264;2023-07-16T12:17:15;12.45;;;7.80;;
6344;SDS011;3205;42.666;23.264;2023-07-16T12:19:41;16.02;;;8.25;;
6344;SDS011;3205;42.666;23.264;2023-07-16T12:22:07;13.82;;;7.95;;
6344;SDS011;3205;42.666;23.264;2023-07-16T12:24:41;13.35;;;7.78;;
6344;SDS011;3205;42.666;23.264;2023-07-16T12:27:07;10.15;;;7.82;;
6344;SDS011;3205;42.666;23.264;2023-07-16T12:29:33;12.02;;;7.75;;
6344;SDS011;3205;42.666;23.264;2023-07-16T12:31:59;11.80;;;7.50;;
6344;SDS011;3205;42.666;23.264;2023-07-16T12:34:26;13.82;;;8.02;;
6344;SDS011;3205;42.666;23.264;2023-07-16T12:36:52;9.75;;;7.78;;
6344;SDS011;3205;42.666;23.264;2023-07-16T12:39:19;12.75;;;8.23;;
6344;SDS011;3205;42.666;23.264;2023-07-16T12:41:45;11.63;;;8.10;;
6344;SDS011;3205;42.666;23.264;2023-07-16T12:44:11;12.27;;;8.20;;
6344;SDS011;3205;42.666;23.264;2023-07-16T12:46:37;13.70;;;8.13;;
6344;SDS011;3205;42.666;23.264;2023-07-16T12:49:04;13.35;;;8.05;;
6344;SDS011;3205;42.666;23.264;2023-07-16T12:51:30;16.10;;;8.18;;
6344;SDS011;3205;42.666;23.264;2023-07-16T12:53:56;12.55;;;8.30;;
6344;SDS011;3205;42.666;23.264;2023-07-16T12:56:22;11.55;;;8.10;;
6344;SDS011;3205;42.666;23.264;2023-07-16T12:58:48;12.20;;;8.18;;
6344;SDS011;3205;42.666;23.264;2023-07-16T13:01:15;8.85;;;7.10;;
6344;SDS011;3205;42.666;23.264;2023-07-16T13:03:41;12.15;;;6.97;;
6344;SDS011;3205;42.666;23.264;2023-07-16T13:06:07;8.38;;;6.20;;
6344;SDS011;3205;42.666;23.264;2023-07-16T13:08:34;10.45;;;6.40;;
6344;SDS011;3205;42.666;23.264;2023-07-16T13:11:00;7.13;;;6.43;;
6344;SDS011;3205;42.666;23.264;2023-07-16T13:13:27;8.73;;;6.15;;
6344;SDS011;3205;42.666;23.264;2023-07-16T13:15:53;11.85;;;7.95;;
6344;SDS011;3205;42.666;23.264;2023-07-16T13:18:20;12.13;;;8.07;;
6344;SDS011;3205;42.666;23.264;2023-07-16T13:20:46;13.05;;;7.25;;
6344;SDS011;3205;42.666;23.264;2023-07-16T13:23:12;11.02;;;7.00;;
6344;SDS011;3205;42.666;23.264;2023-07-16T13:25:39;14.25;;;7.95;;
6344;SDS011;3205;42.666;23.264;2023-07-16T13:28:06;11.25;;;7.53;;
6344;SDS011;3205;42.666;23.264;2023-07-16T13:30:32;10.75;;;7.57;;
6344;SDS011;3205;42.666;23.264;2023-07-16T13:32:58;10.65;;;8.02;;
6344;SDS011;3205;42.666;23.264;2023-07-16T13:35:26;11.30;;;7.30;;
6344;SDS011;3205;42.666;23.264;2023-07-16T13:37:52;9.13;;;7.47;;
6344;SDS011;3205;42.666;23.264;2023-07-16T13:40:18;14.73;;;8.32;;
6344;SDS011;3205;42.666;23.264;2023-07-16T13:42:46;10.80;;;8.13;;
6344;SDS011;3205;42.666;23.264;2023-07-16T13:45:13;9.98;;;8.00;;
6344;SDS011;3205;42.666;23.264;2023-07-16T13:47:39;10.65;;;8.13;;
6344;SDS011;3205;42.666;23.264;2023-07-16T13:50:05;9.90;;;7.45;;
6344;SDS011;3205;42.666;23.264;2023-07-16T13:52:32;11.63;;;8.43;;
6344;SDS011;3205;42.666;23.264;2023-07-16T13:54:58;10.48;;;7.70;;
6344;SDS011;3205;42.666;23.264;2023-07-16T13:57:25;11.55;;;8.13;;
6344;SDS011;3205;42.666;23.264;2023-07-16T13:59:51;8.07;;;7.10;;
6344;SDS011;3205;42.666;23.264;2023-07-16T14:02:17;7.60;;;6.90;;
6344;SDS011;3205;42.666;23.264;2023-07-16T14:04:44;9.82;;;7.00;;
6344;SDS011;3205;42.666;23.264;2023-07-16T14:07:10;10.35;;;7.30;;
6344;SDS011;3205;42.666;23.264;2023-07-16T14:09:36;9.73;;;7.20;;
6344;SDS011;3205;42.666;23.264;2023-07-16T14:12:02;12.85;;;7.63;;
6344;SDS011;3205;42.666;23.264;2023-07-16T14:14:29;11.88;;;7.97;;
6344;SDS011;3205;42.666;23.264;2023-07-16T14:16:56;10.00;;;7.90;;
6344;SDS011;3205;42.666;23.264;2023-07-16T14:19:22;12.10;;;7.13;;
6344;SDS011;3205;42.666;23.264;2023-07-16T14:21:49;8.15;;;7.35;;
6344;SDS011;3205;42.666;23.264;2023-07-16T14:24:15;12.48;;;7.07;;
6344;SDS011;3205;42.666;23.264;2023-07-16T14:26:41;9.82;;;7.10;;
6344;SDS011;3205;42.666;23.264;2023-07-16T14:29:07;13.43;;;7.30;;
6344;SDS011;3205;42.666;23.264;2023-07-16T14:31:33;14.40;;;7.70;;
6344;SDS011;3205;42.666;23.264;2023-07-16T14:34:00;10.35;;;6.45;;
6344;SDS011;3205;42.666;23.264;2023-07-16T14:36:27;12.68;;;7.85;;
6344;SDS011;3205;42.666;23.264;2023-07-16T14:38:53;10.00;;;7.53;;
6344;SDS011;3205;42.666;23.264;2023-07-16T14:41:20;12.55;;;7.53;;
6344;SDS011;3205;42.666;23.264;2023-07-16T14:43:47;10.63;;;7.30;;
6344;SDS011;3205;42.666;23.264;2023-07-16T14:46:14;8.73;;;7.05;;